sensor_id;sensor_type;location;lat;lon;timestamp;pressure;altitude;pressure_sealevel;temperature;humidity
15405;BME280;7801;48.124;11.590;2022-11-12T00:01:16;96982.19;;;8.47;90.96
15405;BME280;7801;48.124;11.590;2022-11-12T00:03:43;96981.53;;;8.40;91.25
15405;BME280;7801;48.124;11.590;2022-11-12T00:06:09;96971.31;;;8.32;91.32
15405;BME280;7801;48.124;11.590;2022-11-12T00:08:35;96974.53;;;8.34;91.62
15405;BME280;7801;48.124;11.590;2022-11-12T00:11:02;96981.56;;;8.28;91.34
15405;BME280;7801;48.124;11.590;2022-11-12T00:13:30;96977.09;;;8.28;91.08
15405;BME280;7801;48.124;11.590;2022-11-12T00:15:55;96972.81;;;8.39;90.59
15405;BME280;7801;48.124;11.590;2022-11-12T00:18:21;96970.53;;;8.31;90.64
15405;BME280;7801;48.124;11.590;2022-11-12T00:20:46;96978.13;;;8.27;90.90
15405;BME280;7801;48.124;11.590;2022-11-12T00:23:11;96973.94;;;8.32;90.70
15405;BME280;7801;48.124;11.590;2022-11-12T00:25:38;96975.44;;;8.39;89.88
15405;BME280;7801;48.124;11.590;2022-11-12T00:28:07;96979.38;;;8.37;89.62
15405;BME280;7801;48.124;11.590;2022-11-12T00:30:37;96974.53;;;8.34;89.53
15405;BME280;7801;48.124;11.590;2022-11-12T00:33:04;96974.59;;;8.22;89.72
15405;BME280;7801;48.124;11.590;2022-11-12T00:35:33;96967.66;;;8.04;90.48
15405;BME280;7801;48.124;11.590;2022-11-12T00:38:00;96969.06;;;8.23;89.98
15405;BME280;7801;48.124;11.590;2022-11-12T00:40:26;96975.16;;;8.24;89.82
15405;BME280;7801;48.124;11.590;2022-11-12T00:42:52;96974.25;;;8.18;89.79
15405;BME280;7801;48.124;11.590;2022-11-12T00:45:19;96968.00;;;7.96;90.59
15405;BME280;7801;48.124;11.590;2022-11-12T00:47:45;96972.25;;;7.97;90.52
15405;BME280;7801;48.124;11.590;2022-11-12T00:50:10;96966.75;;;7.99;90.31
15405;BME280;7801;48.124;11.590;2022-11-12T00:52:36;96971.28;;;8.15;89.36
15405;BME280;7801;48.124;11.590;2022-11-12T00:55:02;96978.84;;;8.23;88.86
15405;BME280;7801;48.124;11.590;2022-11-12T00:57:29;96970.44;;;7.98;89.41
15405;BME280;7801;48.124;11.590;2022-11-12T00:59:54;96975.94;;;7.96;89.29
15405;BME280;7801;48.124;11.590;2022-11-12T01:02:22;96968.56;;;7.70;90.37
15405;BME280;7801;48.124;11.590;2022-11-12T01:04:48;96971.88;;;7.77;90.81
15405;BME280;7801;48.124;11.590;2022-11-12T01:07:15;96973.13;;;7.86;90.82
15405;BME280;7801;48.124;11.590;2022-11-12T01:09:41;96976.00;;;7.84;90.89
15405;BME280;7801;48.124;11.590;2022-11-12T01:12:09;96966.63;;;7.65;91.94
15405;BME280;7801;48.124;11.590;2022-11-12T01:14:36;96966.06;;;7.91;91.24
15405;BME280;7801;48.124;11.590;2022-11-12T01:17:01;96958.59;;;8.00;91.03
15405;BME280;7801;48.124;11.590;2022-11-12T01:19:27;96962.72;;;7.96;91.52
15405;BME280;7801;48.124;11.590;2022-11-12T01:21:53;96963.31;;;7.98;91.16
15405;BME280;7801;48.124;11.590;2022-11-12T01:24:20;96949.72;;;7.78;91.18
15405;BME280;7801;48.124;11.590;2022-11-12T01:26:46;96951.09;;;7.80;91.55
15405;BME280;7801;48.124;11.590;2022-11-12T01:29:12;96953.38;;;7.77;91.63
15405;BME280;7801;48.124;11.590;2022-11-12T01:31:37;96951.34;;;8.07;90.78
15405;BME280;7801;48.124;11.590;2022-11-12T01:34:06;96949.72;;;8.06;90.71
15405;BME280;7801;48.124;11.590;2022-11-12T01:36:36;96943.66;;;7.94;91.26
15405;BME280;7801;48.124;11.590;2022-11-12T01:39:04;96945.37;;;8.00;91.31
15405;BME280;7801;48.124;11.590;2022-11-12T01:41:32;96939.47;;;8.10;90.27
15405;BME280;7801;48.124;11.590;2022-11-12T01:44:19;96947.91;;;8.23;89.82
15405;BME280;7801;48.124;11.590;2022-11-12T01:50:13;96947.44;;;8.26;89.47
15405;BME280;7801;48.124;11.590;2022-11-12T01:52:44;96939.88;;;8.18;89.61
15405;BME280;7801;48.124;11.590;2022-11-12T01:55:18;96946.16;;;8.29;89.10
15405;BME280;7801;48.124;11.590;2022-11-12T01:57:52;96940.06;;;8.28;89.29
15405;BME280;7801;48.124;11.590;2022-11-12T02:00:19;96928.00;;;8.33;88.96
15405;BME280;7801;48.124;11.590;2022-11-12T02:03:00;96928.22;;;8.31;89.11
15405;BME280;7801;48.124;11.590;2022-11-12T02:05:28;96928.38;;;8.24;88.96
15405;BME280;7801;48.124;11.590;2022-11-12T02:07:57;96925.50;;;8.26;88.91
15405;BME280;7801;48.124;11.590;2022-11-12T02:10:24;96925.75;;;7.96;89.48
15405;BME280;7801;48.124;11.590;2022-11-12T02:12:52;96919.88;;;7.94;88.92
15405;BME280;7801;48.124;11.590;2022-11-12T02:15:42;96915.47;;;7.83;89.23
15405;BME280;7801;48.124;11.590;2022-11-12T02:18:08;96919.91;;;8.11;87.93
15405;BME280;7801;48.124;11.590;2022-11-12T02:20:37;96916.22;;;7.95;87.61
15405;BME280;7801;48.124;11.590;2022-11-12T02:23:05;96915.47;;;7.83;87.92
15405;BME280;7801;48.124;11.590;2022-11-12T02:25:31;96913.66;;;7.72;88.86
15405;BME280;7801;48.124;11.590;2022-11-12T02:27:58;96913.19;;;7.75;89.06
15405;BME280;7801;48.124;11.590;2022-11-12T02:30:51;96914.78;;;7.76;88.43
15405;BME280;7801;48.124;11.590;2022-11-12T02:33:19;96917.19;;;7.77;88.93
15405;BME280;7801;48.124;11.590;2022-11-12T02:35:46;96908.09;;;7.85;88.70
15405;BME280;7801;48.124;11.590;2022-11-12T02:38:11;96905.13;;;7.81;88.50
15405;BME280;7801;48.124;11.590;2022-11-12T02:40:39;96909.00;;;7.50;89.80
15405;BME280;7801;48.124;11.590;2022-11-12T02:43:07;96912.25;;;7.81;88.91
15405;BME280;7801;48.124;11.590;2022-11-12T02:45:32;96901.78;;;7.57;89.55
15405;BME280;7801;48.124;11.590;2022-11-12T02:48:03;96910.84;;;7.50;90.26
15405;BME280;7801;48.124;11.590;2022-11-12T02:50:30;96905.16;;;7.70;89.77
15405;BME280;7801;48.124;11.590;2022-11-12T02:52:55;96905.16;;;7.70;89.56
15405;BME280;7801;48.124;11.590;2022-11-12T02:55:20;96905.72;;;7.72;89.22
15405;BME280;7801;48.124;11.590;2022-11-12T02:57:47;96905.84;;;7.77;88.86
15405;BME280;7801;48.124;11.590;2022-11-12T03:00:13;96904.75;;;7.61;89.62
15405;BME280;7801;48.124;11.590;2022-11-12T03:02:39;96901.53;;;7.59;89.73
15405;BME280;7801;48.124;11.590;2022-11-12T03:05:10;96902.44;;;7.65;89.43
15405;BME280;7801;48.124;11.590;2022-11-12T03:07:37;96908.25;;;7.38;90.59
15405;BME280;7801;48.124;11.590;2022-11-12T03:10:04;96906.37;;;7.50;90.37
15405;BME280;7801;48.124;11.590;2022-11-12T03:12:31;96911.00;;;7.43;91.16
15405;BME280;7801;48.124;11.590;2022-11-12T03:14:57;96905.50;;;7.33;91.69
15405;BME280;7801;48.124;11.590;2022-11-12T03:17:22;96911.88;;;7.61;91.40
15405;BME280;7801;48.124;11.590;2022-11-12T03:19:48;96913.41;;;7.73;90.41
15405;BME280;7801;48.124;11.590;2022-11-12T03:22:15;96920.53;;;7.44;90.79
15405;BME280;7801;48.124;11.590;2022-11-12T03:24:40;96912.28;;;7.41;91.61
15405;BME280;7801;48.124;11.590;2022-11-12T03:27:08;96920.53;;;7.44;90.99
15405;BME280;7801;48.124;11.590;2022-11-12T03:29:33;96918.59;;;7.28;91.63
15405;BME280;7801;48.124;11.590;2022-11-12T03:32:00;96923.97;;;7.33;91.14
15405;BME280;7801;48.124;11.590;2022-11-12T03:34:25;96930.94;;;7.51;90.18
15405;BME280;7801;48.124;11.590;2022-11-12T03:36:50;96929.50;;;7.32;90.51
15405;BME280;7801;48.124;11.590;2022-11-12T03:39:16;96933.06;;;7.37;90.83
15405;BME280;7801;48.124;11.590;2022-11-12T03:41:44;96923.06;;;7.39;90.19
15405;BME280;7801;48.124;11.590;2022-11-12T03:44:11;96933.09;;;7.14;90.94
15405;BME280;7801;48.124;11.590;2022-11-12T03:46:37;96934.69;;;6.92;91.98
15405;BME280;7801;48.124;11.590;2022-11-12T03:49:03;96941.38;;;6.82;91.98
15405;BME280;7801;48.124;11.590;2022-11-12T03:51:28;96929.31;;;6.86;92.12
15405;BME280;7801;48.124;11.590;2022-11-12T03:53:53;96928.06;;;7.01;91.29
15405;BME280;7801;48.124;11.590;2022-11-12T03:56:20;96929.06;;;7.23;89.72
15405;BME280;7801;48.124;11.590;2022-11-12T03:58:47;96925.19;;;7.02;89.83
15405;BME280;7801;48.124;11.590;2022-11-12T04:01:13;96929.06;;;7.11;89.72
15405;BME280;7801;48.124;11.590;2022-11-12T04:03:39;96931.72;;;6.76;91.12
15405;BME280;7801;48.124;11.590;2022-11-12T04:06:07;96930.69;;;6.77;90.59
15405;BME280;7801;48.124;11.590;2022-11-12T04:08:51;96942.59;;;6.92;90.63
15405;BME280;7801;48.124;11.590;2022-11-12T04:11:19;96941.81;;;6.91;90.34
15405;BME280;7801;48.124;11.590;2022-11-12T04:13:46;96934.00;;;7.08;89.74
15405;BME280;7801;48.124;11.590;2022-11-12T04:16:15;96939.03;;;6.86;89.38
15405;BME280;7801;48.124;11.590;2022-11-12T04:19:00;96937.31;;;6.57;89.06
15405;BME280;7801;48.124;11.590;2022-11-12T04:21:52;96936.28;;;6.58;90.34
15405;BME280;7801;48.124;11.590;2022-11-12T04:24:41;96938.44;;;6.49;89.99
15405;BME280;7801;48.124;11.590;2022-11-12T04:27:31;96930.88;;;6.41;90.25
15405;BME280;7801;48.124;11.590;2022-11-12T04:29:58;96933.53;;;6.41;90.74
15405;BME280;7801;48.124;11.590;2022-11-12T04:32:51;96930.66;;;6.42;90.10
15405;BME280;7801;48.124;11.590;2022-11-12T04:35:20;96929.53;;;6.08;91.73
15405;BME280;7801;48.124;11.590;2022-11-12T04:37:47;96929.91;;;6.24;90.96
15405;BME280;7801;48.124;11.590;2022-11-12T04:40:14;96935.00;;;6.48;90.21
15405;BME280;7801;48.124;11.590;2022-11-12T04:43:09;96935.03;;;6.60;89.31
15405;BME280;7801;48.124;11.590;2022-11-12T04:45:54;96938.44;;;6.37;90.09
15405;BME280;7801;48.124;11.590;2022-11-12T04:48:23;96937.37;;;6.27;90.59
15405;BME280;7801;48.124;11.590;2022-11-12T04:51:01;96937.22;;;6.10;91.54
15405;BME280;7801;48.124;11.590;2022-11-12T04:53:29;96936.47;;;6.21;91.28
15405;BME280;7801;48.124;11.590;2022-11-12T04:55:57;96941.22;;;6.01;91.99
15405;BME280;7801;48.124;11.590;2022-11-12T04:58:24;96937.78;;;6.00;92.33
15405;BME280;7801;48.124;11.590;2022-11-12T05:00:50;96931.47;;;5.83;92.54
15405;BME280;7801;48.124;11.590;2022-11-12T05:03:16;96935.25;;;6.05;92.26
15405;BME280;7801;48.124;11.590;2022-11-12T05:05:42;96942.09;;;5.76;92.94
15405;BME280;7801;48.124;11.590;2022-11-12T05:08:10;96935.28;;;5.87;92.96
15405;BME280;7801;48.124;11.590;2022-11-12T05:10:36;96934.12;;;6.01;92.02
15405;BME280;7801;48.124;11.590;2022-11-12T05:13:03;96939.69;;;5.75;93.11
15405;BME280;7801;48.124;11.590;2022-11-12T05:15:29;96942.91;;;5.77;92.84
15405;BME280;7801;48.124;11.590;2022-11-12T05:17:56;96946.28;;;5.66;94.02
15405;BME280;7801;48.124;11.590;2022-11-12T05:20:24;96947.44;;;5.70;93.71
15405;BME280;7801;48.124;11.590;2022-11-12T05:22:52;96946.00;;;5.56;94.48
15405;BME280;7801;48.124;11.590;2022-11-12T05:25:17;96948.06;;;5.53;94.38
15405;BME280;7801;48.124;11.590;2022-11-12T05:27:43;96951.72;;;5.52;94.74
15405;BME280;7801;48.124;11.590;2022-11-12T05:30:09;96939.44;;;5.46;95.25
15405;BME280;7801;48.124;11.590;2022-11-12T05:32:36;96943.56;;;5.72;94.38
15405;BME280;7801;48.124;11.590;2022-11-12T05:35:01;96937.53;;;5.53;94.24
15405;BME280;7801;48.124;11.590;2022-11-12T05:37:28;96946.88;;;5.49;95.14
15405;BME280;7801;48.124;11.590;2022-11-12T05:39:54;96938.94;;;5.38;95.46
15405;BME280;7801;48.124;11.590;2022-11-12T05:42:19;96945.00;;;5.38;95.52
15405;BME280;7801;48.124;11.590;2022-11-12T05:44:47;96942.66;;;5.48;94.41
15405;BME280;7801;48.124;11.590;2022-11-12T05:47:12;96944.13;;;5.26;94.97
15405;BME280;7801;48.124;11.590;2022-11-12T05:49:38;96958.59;;;5.17;95.55
15405;BME280;7801;48.124;11.590;2022-11-12T05:52:05;96952.91;;;5.38;95.30
15405;BME280;7801;48.124;11.590;2022-11-12T05:54:31;96950.53;;;5.48;95.00
15405;BME280;7801;48.124;11.590;2022-11-12T05:56:57;96958.16;;;5.38;95.21
15405;BME280;7801;48.124;11.590;2022-11-12T05:59:23;96957.69;;;5.41;94.99
15405;BME280;7801;48.124;11.590;2022-11-12T06:01:50;96958.72;;;5.40;95.21
15405;BME280;7801;48.124;11.590;2022-11-12T06:04:17;96957.19;;;5.51;94.73
15405;BME280;7801;48.124;11.590;2022-11-12T06:06:45;96966.87;;;5.39;94.34
15405;BME280;7801;48.124;11.590;2022-11-12T06:09:10;96965.16;;;5.44;94.52
15405;BME280;7801;48.124;11.590;2022-11-12T06:11:36;96971.00;;;5.46;94.69
15405;BME280;7801;48.124;11.590;2022-11-12T06:14:02;96979.84;;;5.15;95.35
15405;BME280;7801;48.124;11.590;2022-11-12T06:16:30;96978.16;;;5.21;96.04
15405;BME280;7801;48.124;11.590;2022-11-12T06:18:57;96979.66;;;5.53;94.46
15405;BME280;7801;48.124;11.590;2022-11-12T06:21:23;96980.34;;;5.24;94.52
15405;BME280;7801;48.124;11.590;2022-11-12T06:23:52;96986.56;;;5.11;95.41
15405;BME280;7801;48.124;11.590;2022-11-12T06:26:19;96977.59;;;5.19;95.33
15405;BME280;7801;48.124;11.590;2022-11-12T06:28:45;96984.75;;;5.30;94.09
15405;BME280;7801;48.124;11.590;2022-11-12T06:31:12;96977.88;;;5.11;95.10
15405;BME280;7801;48.124;11.590;2022-11-12T06:33:38;96974.66;;;5.09;95.79
15405;BME280;7801;48.124;11.590;2022-11-12T06:36:06;96974.50;;;5.04;96.12
15405;BME280;7801;48.124;11.590;2022-11-12T06:38:33;96979.84;;;4.97;96.57
15405;BME280;7801;48.124;11.590;2022-11-12T06:41:00;96979.53;;;5.05;96.69
15405;BME280;7801;48.124;11.590;2022-11-12T06:43:28;96974.50;;;5.22;95.82
15405;BME280;7801;48.124;11.590;2022-11-12T06:45:57;96979.62;;;4.99;95.96
15405;BME280;7801;48.124;11.590;2022-11-12T06:48:23;96978.03;;;5.16;96.50
15405;BME280;7801;48.124;11.590;2022-11-12T06:50:50;96974.59;;;5.15;96.17
15405;BME280;7801;48.124;11.590;2022-11-12T06:53:15;96987.38;;;5.12;96.11
15405;BME280;7801;48.124;11.590;2022-11-12T06:55:41;96979.03;;;5.15;96.34
15405;BME280;7801;48.124;11.590;2022-11-12T06:58:09;96978.56;;;5.00;96.64
15405;BME280;7801;48.124;11.590;2022-11-12T07:00:34;96971.28;;;5.20;96.83
15405;BME280;7801;48.124;11.590;2022-11-12T07:03:05;96977.13;;;5.40;95.34
15405;BME280;7801;48.124;11.590;2022-11-12T07:05:31;96977.66;;;5.67;94.64
15405;BME280;7801;48.124;11.590;2022-11-12T07:07:57;96977.22;;;5.34;95.04
15405;BME280;7801;48.124;11.590;2022-11-12T07:10:23;96978.47;;;5.31;95.70
15405;BME280;7801;48.124;11.590;2022-11-12T07:12:52;96984.59;;;5.43;95.33
15405;BME280;7801;48.124;11.590;2022-11-12T07:15:19;96988.78;;;5.33;95.20
15405;BME280;7801;48.124;11.590;2022-11-12T07:17:47;96989.41;;;5.10;96.20
15405;BME280;7801;48.124;11.590;2022-11-12T07:20:12;96986.78;;;5.28;96.18
15405;BME280;7801;48.124;11.590;2022-11-12T07:22:37;96996.22;;;5.17;97.17
15405;BME280;7801;48.124;11.590;2022-11-12T07:25:04;96995.03;;;5.13;97.05
15405;BME280;7801;48.124;11.590;2022-11-12T07:27:30;96990.28;;;5.04;97.51
15405;BME280;7801;48.124;11.590;2022-11-12T07:29:56;96988.84;;;5.26;97.35
15405;BME280;7801;48.124;11.590;2022-11-12T07:32:23;96978.69;;;5.30;97.08
15405;BME280;7801;48.124;11.590;2022-11-12T07:34:49;96983.78;;;5.43;95.98
15405;BME280;7801;48.124;11.590;2022-11-12T07:37:15;96983.00;;;5.42;95.81
15405;BME280;7801;48.124;11.590;2022-11-12T07:39:41;96981.25;;;5.36;96.35
15405;BME280;7801;48.124;11.590;2022-11-12T07:42:08;96985.41;;;5.44;96.14
15405;BME280;7801;48.124;11.590;2022-11-12T07:44:34;96986.00;;;5.64;95.54
15405;BME280;7801;48.124;11.590;2022-11-12T07:47:01;96982.25;;;5.72;95.08
15405;BME280;7801;48.124;11.590;2022-11-12T07:49:27;96979.06;;;5.51;95.87
15405;BME280;7801;48.124;11.590;2022-11-12T07:51:55;96981.53;;;5.46;96.24
15405;BME280;7801;48.124;11.590;2022-11-12T07:54:21;96971.97;;;5.52;96.10
15405;BME280;7801;48.124;11.590;2022-11-12T07:56:48;96978.25;;;5.69;95.81
15405;BME280;7801;48.124;11.590;2022-11-12T07:59:14;96974.66;;;5.64;95.65
15405;BME280;7801;48.124;11.590;2022-11-12T08:01:41;96980.94;;;5.63;95.50
15405;BME280;7801;48.124;11.590;2022-11-12T08:04:08;96977.28;;;5.45;96.07
15405;BME280;7801;48.124;11.590;2022-11-12T08:06:36;96976.44;;;5.51;95.82
15405;BME280;7801;48.124;11.590;2022-11-12T08:09:04;96982.69;;;5.69;95.36
15405;BME280;7801;48.124;11.590;2022-11-12T08:11:30;96979.56;;;5.60;95.95
15405;BME280;7801;48.124;11.590;2022-11-12T08:13:57;96975.41;;;5.52;96.12
15405;BME280;7801;48.124;11.590;2022-11-12T08:16:23;96982.87;;;5.56;96.09
15405;BME280;7801;48.124;11.590;2022-11-12T08:18:49;96983.00;;;5.61;96.11
15405;BME280;7801;48.124;11.590;2022-11-12T08:21:15;96987.91;;;5.75;95.29
15405;BME280;7801;48.124;11.590;2022-11-12T08:23:41;96994.78;;;5.76;95.48
15405;BME280;7801;48.124;11.590;2022-11-12T08:26:12;96991.78;;;5.73;95.57
15405;BME280;7801;48.124;11.590;2022-11-12T08:28:40;96988.47;;;5.77;96.02
15405;BME280;7801;48.124;11.590;2022-11-12T08:31:12;96988.91;;;5.93;95.94
15405;BME280;7801;48.124;11.590;2022-11-12T08:33:39;96989.13;;;5.91;95.92
15405;BME280;7801;48.124;11.590;2022-11-12T08:36:16;96993.97;;;5.94;95.01
15405;BME280;7801;48.124;11.590;2022-11-12T08:38:44;96995.44;;;5.90;94.74
15405;BME280;7801;48.124;11.590;2022-11-12T08:41:12;97003.13;;;5.92;95.84
15405;BME280;7801;48.124;11.590;2022-11-12T08:43:42;97004.97;;;6.03;95.40
15405;BME280;7801;48.124;11.590;2022-11-12T08:46:09;97006.16;;;6.07;95.05
15405;BME280;7801;48.124;11.590;2022-11-12T08:48:36;96998.56;;;5.99;94.99
15405;BME280;7801;48.124;11.590;2022-11-12T08:51:06;97002.12;;;6.04;95.31
15405;BME280;7801;48.124;11.590;2022-11-12T08:53:31;96997.06;;;6.21;95.03
15405;BME280;7801;48.124;11.590;2022-11-12T08:55:58;96997.41;;;6.25;94.93
15405;BME280;7801;48.124;11.590;2022-11-12T08:58:25;96996.25;;;6.20;95.42
15405;BME280;7801;48.124;11.590;2022-11-12T09:01:05;96995.03;;;6.05;95.23
15405;BME280;7801;48.124;11.590;2022-11-12T09:03:32;96981.25;;;6.21;95.59
15405;BME280;7801;48.124;11.590;2022-11-12T09:06:01;96987.19;;;6.16;95.13
15405;BME280;7801;48.124;11.590;2022-11-12T09:08:27;96991.31;;;6.24;94.67
15405;BME280;7801;48.124;11.590;2022-11-12T09:10:52;96991.41;;;6.47;94.14
15405;BME280;7801;48.124;11.590;2022-11-12T09:13:19;96993.94;;;6.42;94.32
15405;BME280;7801;48.124;11.590;2022-11-12T09:15:46;96993.81;;;6.49;94.21
15405;BME280;7801;48.124;11.590;2022-11-12T09:18:17;96994.66;;;6.61;94.01
15405;BME280;7801;48.124;11.590;2022-11-12T09:20:44;96993.84;;;6.61;93.93
15405;BME280;7801;48.124;11.590;2022-11-12T09:23:12;96999.59;;;6.69;93.66
15405;BME280;7801;48.124;11.590;2022-11-12T09:25:39;97002.66;;;6.66;93.61
15405;BME280;7801;48.124;11.590;2022-11-12T09:28:09;96996.97;;;6.93;93.03
15405;BME280;7801;48.124;11.590;2022-11-12T09:30:52;97001.56;;;6.85;92.80
15405;BME280;7801;48.124;11.590;2022-11-12T09:33:23;97000.44;;;7.05;92.29
15405;BME280;7801;48.124;11.590;2022-11-12T09:35:50;97007.78;;;7.14;92.32
15405;BME280;7801;48.124;11.590;2022-11-12T09:38:19;97001.00;;;7.18;92.09
15405;BME280;7801;48.124;11.590;2022-11-12T09:41:04;97012.25;;;7.37;91.47
15405;BME280;7801;48.124;11.590;2022-11-12T09:43:42;97001.81;;;7.42;91.15
15405;BME280;7801;48.124;11.590;2022-11-12T09:46:47;97005.44;;;7.53;91.03
15405;BME280;7801;48.124;11.590;2022-11-12T09:49:30;97001.31;;;7.69;90.15
15405;BME280;7801;48.124;11.590;2022-11-12T09:52:05;96993.38;;;7.69;89.90
15405;BME280;7801;48.124;11.590;2022-11-12T09:54:35;97002.53;;;7.78;90.06
15405;BME280;7801;48.124;11.590;2022-11-12T09:57:01;97001.56;;;7.96;89.65
15405;BME280;7801;48.124;11.590;2022-11-12T09:59:36;96995.12;;;8.03;88.90
15405;BME280;7801;48.124;11.590;2022-11-12T10:10:46;96996.59;;;8.39;87.33
15405;BME280;7801;48.124;11.590;2022-11-12T10:16:01;96987.88;;;8.55;85.92
15405;BME280;7801;48.124;11.590;2022-11-12T10:18:57;96981.66;;;8.61;86.43
15405;BME280;7801;48.124;11.590;2022-11-12T10:21:35;96974.75;;;8.60;86.81
15405;BME280;7801;48.124;11.590;2022-11-12T10:24:11;96986.69;;;8.63;86.79
15405;BME280;7801;48.124;11.590;2022-11-12T10:26:39;96978.44;;;8.76;87.22
15405;BME280;7801;48.124;11.590;2022-11-12T10:31:37;96969.16;;;8.90;86.06
15405;BME280;7801;48.124;11.590;2022-11-12T10:34:20;96965.28;;;8.98;85.89
15405;BME280;7801;48.124;11.590;2022-11-12T10:36:51;96955.66;;;9.09;85.90
15405;BME280;7801;48.124;11.590;2022-11-12T10:42:21;96946.47;;;9.33;84.72
15405;BME280;7801;48.124;11.590;2022-11-12T10:44:48;96946.16;;;9.29;85.85
15405;BME280;7801;48.124;11.590;2022-11-12T10:47:38;96944.09;;;9.37;86.13
15405;BME280;7801;48.124;11.590;2022-11-12T10:50:20;96942.34;;;9.42;86.30
15405;BME280;7801;48.124;11.590;2022-11-12T10:53:05;96933.34;;;9.43;86.12
15405;BME280;7801;48.124;11.590;2022-11-12T10:55:33;96943.44;;;9.24;87.16
15405;BME280;7801;48.124;11.590;2022-11-12T10:58:11;96944.22;;;9.25;87.34
15405;BME280;7801;48.124;11.590;2022-11-12T11:03:33;96929.66;;;9.44;86.96
15405;BME280;7801;48.124;11.590;2022-11-12T11:11:16;96936.84;;;9.27;86.91
15405;BME280;7801;48.124;11.590;2022-11-12T11:13:44;96923.78;;;9.42;86.83
15405;BME280;7801;48.124;11.590;2022-11-12T11:16:18;96924.97;;;9.51;86.91
15405;BME280;7801;48.124;11.590;2022-11-12T11:18:50;96917.59;;;9.53;86.25
15405;BME280;7801;48.124;11.590;2022-11-12T11:27:30;96911.66;;;9.46;86.77
15405;BME280;7801;48.124;11.590;2022-11-12T11:30:18;96909.03;;;9.46;86.85
15405;BME280;7801;48.124;11.590;2022-11-12T11:36:10;96904.28;;;9.48;86.92
15405;BME280;7801;48.124;11.590;2022-11-12T11:41:36;96912.84;;;9.34;87.37
15405;BME280;7801;48.124;11.590;2022-11-12T11:47:35;96892.00;;;9.42;86.82
15405;BME280;7801;48.124;11.590;2022-11-12T11:53:23;96895.72;;;9.41;87.24
15405;BME280;7801;48.124;11.590;2022-11-12T11:56:01;96888.88;;;9.45;86.54
15405;BME280;7801;48.124;11.590;2022-11-12T11:58:35;96883.87;;;9.49;87.13
15405;BME280;7801;48.124;11.590;2022-11-12T12:06:27;96878.94;;;9.57;86.39
15405;BME280;7801;48.124;11.590;2022-11-12T12:11:56;96879.94;;;9.51;86.80
15405;BME280;7801;48.124;11.590;2022-11-12T12:18:03;96867.91;;;9.65;86.58
15405;BME280;7801;48.124;11.590;2022-11-12T12:20:31;96870.34;;;9.45;87.12
15405;BME280;7801;48.124;11.590;2022-11-12T12:25:38;96875.84;;;9.65;87.09
15405;BME280;7801;48.124;11.590;2022-11-12T12:30:48;96875.31;;;9.63;86.25
15405;BME280;7801;48.124;11.590;2022-11-12T12:35:54;96872.97;;;9.67;86.63
15405;BME280;7801;48.124;11.590;2022-11-12T12:38:51;96870.06;;;9.69;86.36
15405;BME280;7801;48.124;11.590;2022-11-12T12:41:31;96866.06;;;9.66;86.60
15405;BME280;7801;48.124;11.590;2022-11-12T12:44:03;96854.34;;;9.62;87.20
15405;BME280;7801;48.124;11.590;2022-11-12T12:46:40;96853.37;;;9.68;87.01
15405;BME280;7801;48.124;11.590;2022-11-12T12:49:13;96842.59;;;9.75;87.04
15405;BME280;7801;48.124;11.590;2022-11-12T12:51:42;96840.91;;;9.69;86.80
15405;BME280;7801;48.124;11.590;2022-11-12T12:57:57;96833.03;;;9.74;86.68
15405;BME280;7801;48.124;11.590;2022-11-12T13:00:37;96829.87;;;9.77;86.58
15405;BME280;7801;48.124;11.590;2022-11-12T13:03:04;96827.06;;;9.88;86.37
15405;BME280;7801;48.124;11.590;2022-11-12T13:05:34;96826.06;;;9.68;86.66
15405;BME280;7801;48.124;11.590;2022-11-12T13:08:12;96827.19;;;9.72;86.37
15405;BME280;7801;48.124;11.590;2022-11-12T13:10:48;96822.00;;;9.87;86.02
15405;BME280;7801;48.124;11.590;2022-11-12T13:15:54;96824.78;;;9.97;86.13
15405;BME280;7801;48.124;11.590;2022-11-12T13:26:57;96813.31;;;9.91;86.74
15405;BME280;7801;48.124;11.590;2022-11-12T13:29:39;96823.88;;;9.86;87.14
15405;BME280;7801;48.124;11.590;2022-11-12T13:32:27;96823.37;;;9.89;87.51
15405;BME280;7801;48.124;11.590;2022-11-12T13:40:40;96814.91;;;9.92;87.60
15405;BME280;7801;48.124;11.590;2022-11-12T13:46:27;96810.06;;;9.84;87.92
15405;BME280;7801;48.124;11.590;2022-11-12T13:49:12;96808.41;;;9.78;88.32
15405;BME280;7801;48.124;11.590;2022-11-12T13:51:47;96807.87;;;9.76;88.57
15405;BME280;7801;48.124;11.590;2022-11-12T13:54:31;96802.59;;;9.76;88.78
15405;BME280;7801;48.124;11.590;2022-11-12T13:59:47;96792.44;;;10.00;88.08
15405;BME280;7801;48.124;11.590;2022-11-12T14:02:26;96795.94;;;10.06;87.58
15405;BME280;7801;48.124;11.590;2022-11-12T14:04:52;96789.31;;;10.08;87.66
15405;BME280;7801;48.124;11.590;2022-11-12T14:07:38;96792.72;;;10.04;87.53
15405;BME280;7801;48.124;11.590;2022-11-12T14:10:16;96797.66;;;9.90;88.19
15405;BME280;7801;48.124;11.590;2022-11-12T14:18:35;96785.88;;;9.76;88.67
15405;BME280;7801;48.124;11.590;2022-11-12T14:21:10;96786.88;;;9.70;89.26
15405;BME280;7801;48.124;11.590;2022-11-12T14:23:43;96786.75;;;9.54;90.02
15405;BME280;7801;48.124;11.590;2022-11-12T14:26:10;96786.06;;;9.42;90.67
15405;BME280;7801;48.124;11.590;2022-11-12T14:28:38;96780.22;;;9.40;90.95
15405;BME280;7801;48.124;11.590;2022-11-12T14:31:12;96777.81;;;9.39;90.74
15405;BME280;7801;48.124;11.590;2022-11-12T14:33:38;96777.37;;;9.47;90.74
15405;BME280;7801;48.124;11.590;2022-11-12T14:36:13;96764.44;;;9.50;90.34
15405;BME280;7801;48.124;11.590;2022-11-12T14:38:42;96767.44;;;9.32;91.18
15405;BME280;7801;48.124;11.590;2022-11-12T14:41:17;96762.47;;;9.41;91.02
15405;BME280;7801;48.124;11.590;2022-11-12T14:43:47;96757.25;;;9.46;91.11
15405;BME280;7801;48.124;11.590;2022-11-12T14:46:46;96757.19;;;9.41;91.35
15405;BME280;7801;48.124;11.590;2022-11-12T14:49:37;96761.06;;;9.60;90.64
15405;BME280;7801;48.124;11.590;2022-11-12T14:52:39;96757.25;;;9.46;90.86
15405;BME280;7801;48.124;11.590;2022-11-12T14:55:12;96753.22;;;9.43;91.41
15405;BME280;7801;48.124;11.590;2022-11-12T14:57:40;96751.78;;;9.30;91.98
15405;BME280;7801;48.124;11.590;2022-11-12T15:00:37;96747.37;;;9.41;91.72
15405;BME280;7801;48.124;11.590;2022-11-12T15:03:04;96755.13;;;9.21;92.69
15405;BME280;7801;48.124;11.590;2022-11-12T15:05:31;96754.47;;;9.09;93.52